createdAt,value
2023-01-13T00:00:15.522Z,9.60
2023-01-13T00:02:42.570Z,9.60
2023-01-13T00:05:10.479Z,9.60
2023-01-13T00:07:40.297Z,9.60
2023-01-13T00:10:09.637Z,9.60
2023-01-13T00:12:40.774Z,9.60
2023-01-13T00:15:09.339Z,9.60
2023-01-13T00:17:36.447Z,9.60
2023-01-13T00:20:03.810Z,9.60
2023-01-13T00:22:34.119Z,9.60
2023-01-13T00:25:01.707Z,9.70
2023-01-13T00:27:29.346Z,9.70
2023-01-13T00:29:56.287Z,9.60
2023-01-13T00:32:23.137Z,9.60
2023-01-13T00:34:49.980Z,9.60
2023-01-13T00:37:18.959Z,9.60
2023-01-13T00:39:46.123Z,9.60
2023-01-13T00:42:31.669Z,9.50
2023-01-13T00:44:58.564Z,9.60
2023-01-13T00:47:25.395Z,9.50
2023-01-13T00:49:52.377Z,9.70
2023-01-13T00:52:19.323Z,9.60
2023-01-13T00:54:46.244Z,9.60
2023-01-13T00:57:13.136Z,9.60
2023-01-13T00:59:40.097Z,9.60
2023-01-13T01:02:07.112Z,9.60
2023-01-13T01:04:34.122Z,9.50
2023-01-13T01:07:00.970Z,9.50
2023-01-13T01:09:32.891Z,9.50
2023-01-13T01:12:00.760Z,9.50
2023-01-13T01:14:27.679Z,9.50
2023-01-13T01:16:54.821Z,9.50
2023-01-13T01:19:21.842Z,9.50
2023-01-13T01:21:48.777Z,9.50
2023-01-13T01:24:17.058Z,9.50
2023-01-13T01:26:44.039Z,9.40
2023-01-13T01:29:15.661Z,9.40
2023-01-13T01:31:43.704Z,9.40
2023-01-13T01:34:10.820Z,9.50
2023-01-13T01:36:39.224Z,9.50
2023-01-13T01:39:06.946Z,9.50
2023-01-13T01:41:35.673Z,9.50
2023-01-13T01:44:25.352Z,9.50
2023-01-13T01:46:52.660Z,9.50
2023-01-13T01:49:31.626Z,9.50
2023-01-13T01:52:08.577Z,9.60
2023-01-13T01:54:43.519Z,9.70
2023-01-13T01:57:14.871Z,9.70
2023-01-13T01:59:42.522Z,9.70
2023-01-13T02:02:09.946Z,9.60
2023-01-13T02:04:43.340Z,9.60
2023-01-13T02:07:10.641Z,9.60
2023-01-13T02:09:37.665Z,9.60
2023-01-13T02:12:23.294Z,9.60
2023-01-13T02:14:50.329Z,9.60
2023-01-13T02:17:20.003Z,9.60
2023-01-13T02:20:20.788Z,9.70
2023-01-13T02:23:36.663Z,9.70
2023-01-13T02:26:21.750Z,9.70
2023-01-13T02:29:47.873Z,9.70
2023-01-13T02:32:33.148Z,9.60
2023-01-13T02:35:18.308Z,9.60
2023-01-13T02:37:46.129Z,9.60
2023-01-13T02:40:18.966Z,9.60
2023-01-13T02:43:14.228Z,9.60
2023-01-13T02:45:48.855Z,9.60
2023-01-13T02:48:20.442Z,9.70
2023-01-13T02:51:18.889Z,9.70
2023-01-13T02:54:01.031Z,9.70
2023-01-13T02:56:29.205Z,9.80
2023-01-13T02:58:58.814Z,9.70
2023-01-13T03:14:39.660Z,9.70
2023-01-13T03:17:26.574Z,9.60
2023-01-13T03:20:06.420Z,9.50
2023-01-13T03:23:03.483Z,9.50
2023-01-13T03:25:40.486Z,9.60
2023-01-13T03:28:12.113Z,9.60
2023-01-13T03:30:44.981Z,9.60
2023-01-13T03:33:23.800Z,9.60
2023-01-13T03:35:54.332Z,9.50
2023-01-13T03:38:42.941Z,9.60
2023-01-13T03:41:17.300Z,9.60
2023-01-13T03:44:25.323Z,9.70
2023-01-13T03:47:09.634Z,9.70
2023-01-13T03:49:39.474Z,9.70
2023-01-13T03:52:10.005Z,9.60
2023-01-13T03:54:44.869Z,9.70
2023-01-13T03:57:15.450Z,9.70
2023-01-13T03:59:49.091Z,9.70
2023-01-13T04:02:27.791Z,9.70
2023-01-13T04:05:03.571Z,9.70
2023-01-13T04:07:48.722Z,9.80
2023-01-13T04:10:21.489Z,9.80
2023-01-13T04:13:00.517Z,9.70
2023-01-13T04:15:30.940Z,9.70
2023-01-13T04:18:25.488Z,9.60
2023-01-13T04:20:56.143Z,9.60
2023-01-13T04:23:23.759Z,9.50
2023-01-13T04:25:51.192Z,9.60
2023-01-13T04:28:18.950Z,9.60
2023-01-13T04:30:46.431Z,9.70
2023-01-13T04:33:14.400Z,9.60
2023-01-13T04:35:41.320Z,9.70
2023-01-13T04:38:16.388Z,9.70
2023-01-13T04:40:43.468Z,9.70
2023-01-13T04:43:10.349Z,9.70
2023-01-13T04:45:37.132Z,9.70
2023-01-13T04:48:04.217Z,9.70
2023-01-13T04:50:31.054Z,9.70
2023-01-13T04:52:57.853Z,9.70
2023-01-13T04:55:25.280Z,9.70
2023-01-13T04:57:52.411Z,9.80
2023-01-13T05:00:21.250Z,9.80
2023-01-13T05:02:51.135Z,9.70
2023-01-13T05:05:18.644Z,9.80
2023-01-13T05:07:45.859Z,9.80
2023-01-13T05:10:12.693Z,9.70
2023-01-13T05:12:57.909Z,9.80
2023-01-13T05:15:43.269Z,9.80
2023-01-13T05:18:10.266Z,9.80
2023-01-13T05:20:37.093Z,9.80
2023-01-13T05:23:22.446Z,9.70
2023-01-13T05:25:49.554Z,9.70
2023-01-13T05:28:19.545Z,9.70
2023-01-13T05:30:49.312Z,9.70
2023-01-13T05:33:18.270Z,9.80
2023-01-13T05:35:47.333Z,9.80
2023-01-13T05:38:14.863Z,9.90
2023-01-13T05:41:00.640Z,9.90
2023-01-13T05:43:27.992Z,9.90
2023-01-13T05:46:07.870Z,9.90
2023-01-13T05:48:40.586Z,9.80
2023-01-13T05:51:09.836Z,9.90
2023-01-13T05:53:39.988Z,9.90
2023-01-13T05:56:08.084Z,9.90
2023-01-13T05:58:36.276Z,9.90
2023-01-13T06:01:10.995Z,9.80
2023-01-13T06:03:38.510Z,9.90
2023-01-13T06:06:09.310Z,9.90
2023-01-13T06:08:39.583Z,9.90
2023-01-13T06:11:07.081Z,9.90
2023-01-13T06:13:34.471Z,9.90
2023-01-13T06:16:02.852Z,10.00
2023-01-13T06:18:29.747Z,10.00
2023-01-13T06:20:56.673Z,9.90
2023-01-13T06:23:24.026Z,9.90
2023-01-13T06:26:04.179Z,9.90
2023-01-13T06:28:31.800Z,9.90
2023-01-13T06:31:03.116Z,9.90
2023-01-13T06:33:46.033Z,9.90
2023-01-13T06:36:23.884Z,9.90
2023-01-13T06:38:54.757Z,9.90
2023-01-13T06:41:40.485Z,10.00
2023-01-13T06:44:07.467Z,9.90
2023-01-13T06:46:35.705Z,9.90
2023-01-13T06:49:02.679Z,9.90
2023-01-13T06:51:29.421Z,9.90
2023-01-13T06:53:56.361Z,9.80
2023-01-13T06:56:23.077Z,9.80
2023-01-13T06:58:49.911Z,9.80
2023-01-13T07:01:16.798Z,9.80
2023-01-13T07:03:43.784Z,9.80
2023-01-13T07:06:10.526Z,9.80
2023-01-13T07:08:37.423Z,9.80
2023-01-13T07:11:04.664Z,9.80
2023-01-13T07:13:49.933Z,9.80
2023-01-13T07:16:16.707Z,9.80
2023-01-13T07:18:43.795Z,9.80
2023-01-13T07:21:18.850Z,9.80
2023-01-13T07:23:49.413Z,9.90
2023-01-13T07:26:17.249Z,9.80
2023-01-13T07:28:44.049Z,9.60
2023-01-13T07:31:19.964Z,9.50
2023-01-13T07:33:47.629Z,9.40
2023-01-13T07:36:15.113Z,9.10
2023-01-13T07:38:44.418Z,8.90
2023-01-13T07:41:34.115Z,8.70
2023-01-13T07:44:04.843Z,8.60
2023-01-13T07:46:32.277Z,8.60
2023-01-13T07:48:59.075Z,8.60
2023-01-13T07:51:25.909Z,8.50
2023-01-13T07:53:52.714Z,8.50
2023-01-13T07:56:19.840Z,8.50
2023-01-13T07:58:50.413Z,8.50
2023-01-13T08:01:21.167Z,8.50
2023-01-13T08:03:48.416Z,8.50
2023-01-13T08:06:15.340Z,8.40
2023-01-13T08:08:42.077Z,8.40
2023-01-13T08:11:09.252Z,8.40
2023-01-13T08:13:36.265Z,8.40
2023-01-13T08:16:10.022Z,8.40
2023-01-13T08:18:37.398Z,8.40
2023-01-13T08:21:07.868Z,8.40
2023-01-13T08:23:35.092Z,8.40
2023-01-13T08:26:05.351Z,8.50
2023-01-13T08:28:32.590Z,8.40
2023-01-13T08:31:01.205Z,8.50
2023-01-13T08:33:28.836Z,8.50
2023-01-13T08:35:56.372Z,8.50
2023-01-13T08:38:23.679Z,8.50
2023-01-13T08:40:50.469Z,8.60
2023-01-13T08:43:17.378Z,8.50
2023-01-13T08:45:44.189Z,8.50
2023-01-13T08:48:10.956Z,8.50
2023-01-13T08:50:37.752Z,8.40
2023-01-13T08:53:04.505Z,8.30
2023-01-13T08:55:31.349Z,8.30
2023-01-13T08:58:14.304Z,8.30
2023-01-13T09:00:42.620Z,8.30
2023-01-13T09:03:12.190Z,8.30
2023-01-13T09:05:39.379Z,8.20
2023-01-13T09:08:06.327Z,8.30
2023-01-13T09:10:33.725Z,8.20
2023-01-13T09:13:13.755Z,8.20
2023-01-13T09:15:42.108Z,8.20
2023-01-13T09:18:09.105Z,8.20
2023-01-13T09:20:36.084Z,8.30
2023-01-13T09:23:03.666Z,8.40
2023-01-13T09:25:31.279Z,8.40
2023-01-13T09:27:58.162Z,8.30
2023-01-13T09:30:25.141Z,8.30
2023-01-13T09:33:11.937Z,8.30
2023-01-13T09:35:38.741Z,8.20
2023-01-13T09:38:06.433Z,8.30
2023-01-13T09:40:33.479Z,8.40
2023-01-13T09:43:42.809Z,8.30
2023-01-13T09:46:43.102Z,8.30
2023-01-13T09:49:20.425Z,8.30
2023-01-13T09:51:58.648Z,8.30
2023-01-13T09:54:25.897Z,8.30
2023-01-13T09:56:53.109Z,8.30
2023-01-13T09:59:20.219Z,8.40
2023-01-13T10:02:11.877Z,8.40
2023-01-13T10:04:38.636Z,8.50
2023-01-13T10:07:13.639Z,8.50
2023-01-13T10:09:49.181Z,8.50
2023-01-13T10:12:41.464Z,8.50
2023-01-13T10:15:15.955Z,8.40
2023-01-13T10:17:58.307Z,8.50
2023-01-13T10:20:29.120Z,8.50
2023-01-13T10:23:44.042Z,8.50
2023-01-13T10:26:25.235Z,8.60
2023-01-13T10:28:57.034Z,8.60
2023-01-13T10:31:25.189Z,8.50
2023-01-13T10:34:06.528Z,8.50
2023-01-13T10:36:33.493Z,8.50
2023-01-13T10:39:15.512Z,8.60
2023-01-13T10:41:42.367Z,8.60
2023-01-13T10:44:18.849Z,8.60
2023-01-13T10:46:57.559Z,8.60
2023-01-13T10:49:33.619Z,8.70
2023-01-13T10:52:02.085Z,8.80
2023-01-13T10:54:29.768Z,8.80
2023-01-13T10:57:20.325Z,8.90
2023-01-13T10:59:48.570Z,9.00
2023-01-13T11:02:36.202Z,9.00
2023-01-13T11:05:23.302Z,9.00
2023-01-13T11:07:54.535Z,9.00
2023-01-13T11:10:32.623Z,9.00
2023-01-13T11:13:23.816Z,9.00
2023-01-13T11:16:14.640Z,9.00
2023-01-13T11:19:02.366Z,9.10
2023-01-13T11:21:35.737Z,9.10
2023-01-13T11:24:36.774Z,9.30
2023-01-13T11:27:31.549Z,9.30
2023-01-13T11:30:21.113Z,9.40
2023-01-13T11:33:11.019Z,9.60
2023-01-13T11:36:29.038Z,9.60
2023-01-13T11:39:00.691Z,9.70
2023-01-13T11:41:43.904Z,9.70
2023-01-13T11:44:19.153Z,9.70
2023-01-13T11:46:49.794Z,9.60
2023-01-13T11:49:27.819Z,9.50
2023-01-13T11:52:04.355Z,9.50
2023-01-13T11:54:52.362Z,9.60
2023-01-13T11:57:21.815Z,9.50
2023-01-13T12:00:10.886Z,9.40
2023-01-13T12:03:07.242Z,9.50
2023-01-13T12:05:39.446Z,9.60
2023-01-13T12:08:26.086Z,9.60
2023-01-13T12:11:01.348Z,9.70
2023-01-13T12:13:39.874Z,9.70
2023-01-13T12:16:27.030Z,9.80
2023-01-13T12:19:10.597Z,9.90
2023-01-13T12:21:58.974Z,9.80
2023-01-13T12:24:49.365Z,9.80
2023-01-13T12:27:39.449Z,9.90
2023-01-13T12:31:01.442Z,9.90
2023-01-13T12:34:03.450Z,9.90
2023-01-13T12:37:07.332Z,9.80
2023-01-13T12:39:43.104Z,9.80
2023-01-13T12:42:38.918Z,9.80
2023-01-13T12:45:11.736Z,9.80
2023-01-13T12:48:00.112Z,9.80
2023-01-13T12:50:26.959Z,9.80
2023-01-13T12:52:55.919Z,9.80
2023-01-13T12:55:36.023Z,9.80
2023-01-13T12:58:16.012Z,9.80
2023-01-13T13:00:44.744Z,9.80
2023-01-13T13:03:12.204Z,9.90
2023-01-13T13:06:08.565Z,9.90
2023-01-13T13:08:51.485Z,9.90
2023-01-13T13:11:59.893Z,9.80
2023-01-13T13:14:42.132Z,9.80
2023-01-13T13:17:30.151Z,9.80
2023-01-13T13:19:57.986Z,9.90
2023-01-13T13:22:27.711Z,9.90
2023-01-13T13:24:54.430Z,9.80
2023-01-13T13:27:45.420Z,9.90
2023-01-13T13:30:17.903Z,9.90
2023-01-13T13:33:14.335Z,9.80
2023-01-13T13:35:52.089Z,9.80
2023-01-13T13:39:04.034Z,9.80
2023-01-13T13:41:49.594Z,9.70
2023-01-13T13:44:50.413Z,9.80
2023-01-13T13:47:18.624Z,9.80
2023-01-13T13:49:51.947Z,9.90
2023-01-13T13:52:42.519Z,9.90
2023-01-13T13:55:22.337Z,9.80
2023-01-13T13:57:51.808Z,9.80
2023-01-13T14:00:31.512Z,9.80
2023-01-13T14:03:01.614Z,9.80
2023-01-13T14:05:31.093Z,9.70
2023-01-13T14:08:14.225Z,9.70
2023-01-13T14:10:43.090Z,9.70
2023-01-13T14:13:30.108Z,9.70
2023-01-13T14:16:05.509Z,9.70
2023-01-13T14:18:35.115Z,9.60
2023-01-13T14:21:22.166Z,9.60
2023-01-13T14:24:14.350Z,9.50
2023-01-13T14:26:41.183Z,9.50
2023-01-13T14:29:14.259Z,9.50
2023-01-13T14:31:41.040Z,9.40
2023-01-13T14:34:32.633Z,9.30
2023-01-13T14:36:56.746Z,9.20
2023-01-13T14:39:25.060Z,9.20
2023-01-13T14:41:53.242Z,9.00
2023-01-13T14:44:25.673Z,8.90
2023-01-13T14:46:55.863Z,8.70
2023-01-13T14:49:41.492Z,8.60
2023-01-13T14:52:19.002Z,8.60
2023-01-13T14:54:52.577Z,8.50
2023-01-13T14:57:25.978Z,8.50
2023-01-13T15:00:08.037Z,8.40
2023-01-13T15:02:41.124Z,8.40
2023-01-13T15:05:17.235Z,8.30
2023-01-13T15:07:53.450Z,8.20
2023-01-13T15:10:38.513Z,8.10
2023-01-13T15:13:07.235Z,8.10
2023-01-13T15:15:39.308Z,8.10
2023-01-13T15:18:14.162Z,8.10
2023-01-13T15:20:41.749Z,8.00
2023-01-13T15:23:08.980Z,7.80
2023-01-13T15:25:37.848Z,7.80
2023-01-13T15:28:05.878Z,7.70
2023-01-13T15:30:33.123Z,7.70
2023-01-13T15:33:00.215Z,7.70
2023-01-13T15:35:29.280Z,7.70
2023-01-13T15:37:56.827Z,7.60
2023-01-13T15:40:31.445Z,7.60
2023-01-13T15:43:16.946Z,7.60
2023-01-13T15:46:02.934Z,7.70
2023-01-13T15:48:33.044Z,7.70
2023-01-13T15:51:02.421Z,7.70
2023-01-13T15:53:30.274Z,7.70
2023-01-13T15:55:57.874Z,7.80
2023-01-13T15:58:28.286Z,7.80
2023-01-13T16:00:55.591Z,7.70
2023-01-13T16:03:22.573Z,7.70
2023-01-13T16:05:49.568Z,7.70
2023-01-13T16:08:19.309Z,7.70
2023-01-13T16:10:46.965Z,7.70
2023-01-13T16:13:16.159Z,7.60
2023-01-13T16:15:46.514Z,7.60
2023-01-13T16:18:24.255Z,7.70
2023-01-13T16:20:55.328Z,7.70
2023-01-13T16:23:23.240Z,7.70
2023-01-13T16:25:50.510Z,7.60
2023-01-13T16:28:22.890Z,7.70
2023-01-13T16:30:50.352Z,7.70
2023-01-13T16:33:17.467Z,7.60
2023-01-13T16:36:12.467Z,7.60
2023-01-13T16:38:31.102Z,7.60
2023-01-13T16:40:58.058Z,7.60
2023-01-13T16:43:24.835Z,7.60
2023-01-13T16:45:51.672Z,7.70
2023-01-13T16:48:20.275Z,7.70
2023-01-13T16:50:47.692Z,7.70
2023-01-13T16:53:14.615Z,7.70
2023-01-13T16:55:42.507Z,7.80
2023-01-13T16:58:17.551Z,7.70
2023-01-13T17:00:47.206Z,7.80
2023-01-13T17:03:15.308Z,7.80
2023-01-13T17:05:43.281Z,7.80
2023-01-13T17:08:17.779Z,7.70
2023-01-13T17:10:45.922Z,7.70
2023-01-13T17:13:16.253Z,7.60
2023-01-13T17:15:44.501Z,7.70
2023-01-13T17:18:13.293Z,7.60
2023-01-13T17:20:40.358Z,7.60
2023-01-13T17:23:07.066Z,7.70
2023-01-13T17:25:33.923Z,7.70
2023-01-13T17:28:00.732Z,7.60
2023-01-13T17:30:27.666Z,7.60
2023-01-13T17:32:54.414Z,7.70
2023-01-13T17:35:24.728Z,7.60
2023-01-13T17:37:54.730Z,7.60
2023-01-13T17:40:21.550Z,7.60
2023-01-13T17:42:48.465Z,7.60
2023-01-13T17:45:16.362Z,7.70
2023-01-13T17:47:43.149Z,7.70
2023-01-13T17:50:10.759Z,7.70
2023-01-13T17:52:37.456Z,7.60
2023-01-13T17:55:04.504Z,7.60
2023-01-13T17:57:31.202Z,7.60
2023-01-13T17:59:59.538Z,7.70
2023-01-13T18:02:26.494Z,7.70
2023-01-13T18:04:53.387Z,7.70
2023-01-13T18:07:20.204Z,7.70
2023-01-13T18:09:49.131Z,7.70
2023-01-13T18:12:16.583Z,7.70
2023-01-13T18:14:43.326Z,7.70
2023-01-13T18:17:10.367Z,7.70
2023-01-13T18:19:55.751Z,7.70
2023-01-13T18:22:40.950Z,7.70
2023-01-13T18:25:31.129Z,7.70
2023-01-13T18:28:01.228Z,7.70
2023-01-13T18:30:28.069Z,7.80
2023-01-13T18:32:55.453Z,7.80
2023-01-13T18:35:22.243Z,7.70
2023-01-13T18:37:49.349Z,7.70
2023-01-13T18:40:16.476Z,7.60
2023-01-13T18:42:52.197Z,7.60
2023-01-13T18:45:24.508Z,7.70
2023-01-13T18:47:51.763Z,7.70
2023-01-13T18:50:19.562Z,7.60
2023-01-13T18:52:46.568Z,7.60
2023-01-13T18:55:13.388Z,7.60
2023-01-13T18:57:40.489Z,7.60
2023-01-13T19:00:12.497Z,7.60
2023-01-13T19:02:39.688Z,7.50
2023-01-13T19:05:06.974Z,7.50
2023-01-13T19:07:35.652Z,7.60
2023-01-13T19:10:04.353Z,7.60
2023-01-13T19:12:33.751Z,7.60
2023-01-13T19:15:01.803Z,7.70
2023-01-13T19:17:32.672Z,7.60
2023-01-13T19:20:07.676Z,7.50
2023-01-13T19:22:35.111Z,7.50
2023-01-13T19:25:03.060Z,7.50
2023-01-13T19:27:30.219Z,7.40
2023-01-13T19:30:03.924Z,7.40
2023-01-13T19:32:32.947Z,7.40
2023-01-13T19:34:59.832Z,7.50
2023-01-13T19:37:30.210Z,7.50
2023-01-13T19:40:00.380Z,7.60
2023-01-13T19:42:46.220Z,7.60
2023-01-13T19:45:26.603Z,7.60
2023-01-13T19:47:54.060Z,7.50
2023-01-13T19:50:20.999Z,7.50
2023-01-13T19:52:47.749Z,7.50
2023-01-13T19:55:14.581Z,7.40
2023-01-13T19:57:41.409Z,7.40
2023-01-13T20:00:09.645Z,7.50
2023-01-13T20:02:44.844Z,7.50
2023-01-13T20:05:12.806Z,7.50
2023-01-13T20:07:39.526Z,7.60
2023-01-13T20:10:06.928Z,7.50
2023-01-13T20:12:33.664Z,7.50
2023-01-13T20:15:00.430Z,7.60
2023-01-13T20:17:27.279Z,7.60
2023-01-13T20:19:58.004Z,7.50
2023-01-13T20:22:25.188Z,7.50
2023-01-13T20:24:55.473Z,7.50
2023-01-13T20:27:24.143Z,7.50
2023-01-13T20:29:51.238Z,7.50
2023-01-13T20:32:20.573Z,7.50
2023-01-13T20:34:47.512Z,7.50
2023-01-13T20:37:14.328Z,7.50
2023-01-13T20:39:44.840Z,7.40
2023-01-13T20:42:30.158Z,7.30
2023-01-13T20:44:57.959Z,7.40
2023-01-13T20:47:28.578Z,7.30
2023-01-13T20:49:55.337Z,7.30
2023-01-13T20:52:22.365Z,7.30
2023-01-13T20:54:49.213Z,7.40
2023-01-13T20:57:15.995Z,7.30
2023-01-13T20:59:42.907Z,7.30
2023-01-13T21:02:15.544Z,7.30
2023-01-13T21:04:42.960Z,7.30
2023-01-13T21:07:10.283Z,7.30
2023-01-13T21:09:37.250Z,7.30
2023-01-13T21:12:23.621Z,7.30
2023-01-13T21:15:08.924Z,7.40
2023-01-13T21:17:54.725Z,7.50
2023-01-13T21:20:21.554Z,7.50
2023-01-13T21:22:49.384Z,7.60
2023-01-13T21:25:20.242Z,7.60
2023-01-13T21:27:47.268Z,7.60
2023-01-13T21:30:15.770Z,7.60
2023-01-13T21:32:44.188Z,7.60
2023-01-13T21:35:12.322Z,7.70
2023-01-13T21:37:40.558Z,7.70
2023-01-13T21:40:10.132Z,7.70
2023-01-13T21:42:55.451Z,7.70
2023-01-13T21:45:40.806Z,7.70
2023-01-13T21:48:07.635Z,7.70
2023-01-13T21:50:34.403Z,7.70
2023-01-13T21:53:01.331Z,7.70
2023-01-13T21:55:30.484Z,7.80
2023-01-13T21:57:59.461Z,7.80
2023-01-13T22:00:28.337Z,7.80
2023-01-13T22:02:56.110Z,7.70
2023-01-13T22:05:24.828Z,7.60
2023-01-13T22:07:52.415Z,7.60
2023-01-13T22:10:22.004Z,7.50
2023-01-13T22:12:55.674Z,7.40
2023-01-13T22:15:26.668Z,7.40
2023-01-13T22:17:55.553Z,7.30
2023-01-13T22:20:23.053Z,7.30
2023-01-13T22:22:50.270Z,7.30
2023-01-13T22:25:20.049Z,7.30
2023-01-13T22:27:48.734Z,7.30
2023-01-13T22:30:21.822Z,7.30
2023-01-13T22:32:48.852Z,7.30
2023-01-13T22:35:16.101Z,7.30
2023-01-13T22:37:43.353Z,7.20
2023-01-13T22:40:12.061Z,7.20
2023-01-13T22:42:39.755Z,7.10
2023-01-13T22:45:14.021Z,7.10
2023-01-13T22:47:40.888Z,7.10
2023-01-13T22:50:09.073Z,7.10
2023-01-13T22:52:36.066Z,7.00
2023-01-13T22:55:03.076Z,7.00
2023-01-13T22:57:35.936Z,7.00
2023-01-13T23:00:10.464Z,7.00
2023-01-13T23:02:38.325Z,7.00
2023-01-13T23:05:05.475Z,7.00
2023-01-13T23:07:32.314Z,7.00
2023-01-13T23:09:59.155Z,7.00
2023-01-13T23:12:25.917Z,7.00
2023-01-13T23:14:52.721Z,6.90
2023-01-13T23:17:19.441Z,6.90
2023-01-13T23:19:46.148Z,6.80
2023-01-13T23:22:13.525Z,6.80
2023-01-13T23:24:40.352Z,6.70
2023-01-13T23:27:07.218Z,6.70
2023-01-13T23:29:33.893Z,6.70
2023-01-13T23:32:00.621Z,6.70
2023-01-13T23:34:27.765Z,6.80
2023-01-13T23:36:54.484Z,6.80
2023-01-13T23:39:21.305Z,6.90
2023-01-13T23:41:48.077Z,6.90
2023-01-13T23:44:14.875Z,6.90
2023-01-13T23:46:41.814Z,6.90
2023-01-13T23:49:08.550Z,6.90
2023-01-13T23:51:35.326Z,7.00
2023-01-13T23:54:02.093Z,7.00
2023-01-13T23:56:30.977Z,7.00
2023-01-13T23:58:57.984Z,6.90
